Time;durP1;ratioP1;P1;durP2;ratioP2;P2;SDS_P1;SDS_P2;PMS_P1;PMS_P2;Temp;Humidity;BMP_temperature;BMP_pressure;BME280_temperature;BME280_humidity;BME280_pressure;Samples;Min_cycle;Max_cycle;Signal;HPM_P1;HPM_P2
2022/12/07 00:00:40;;;;;;;16.73;11.07;;;7.20;99.90;;;;;;5015663;28;20264;-75
2022/12/07 00:03:06;;;;;;;15.77;11.60;;;7.40;99.90;;;;;;5015701;28;20212;-76
2022/12/07 00:05:31;;;;;;;18.17;12.77;;;7.30;99.90;;;;;;5015674;28;20209;-76
2022/12/07 00:07:58;;;;;;;21.33;12.33;;;7.20;99.90;;;;;;5015268;28;20564;-76
2022/12/07 00:10:24;;;;;;;22.47;13.03;;;7.10;99.90;;;;;;5015692;28;20190;-75
2022/12/07 00:12:50;;;;;;;16.20;11.27;;;7.00;99.90;;;;;;5013707;28;20173;-75
2022/12/07 00:15:15;;;;;;;18.03;11.53;;;7.00;99.90;;;;;;5013690;28;20174;-76
2022/12/07 00:17:41;;;;;;;20.17;12.80;;;6.80;99.90;;;;;;5014742;28;20235;-74
2022/12/07 00:20:07;;;;;;;18.00;11.83;;;7.00;99.90;;;;;;5013611;28;20173;-75
2022/12/07 00:22:32;;;;;;;15.23;10.73;;;6.90;99.90;;;;;;5014829;28;20177;-76
2022/12/07 00:24:59;;;;;;;15.20;10.90;;;6.80;99.90;;;;;;5015225;28;20172;-75
2022/12/07 00:27:25;;;;;;;21.30;13.17;;;6.60;99.90;;;;;;5013690;28;20185;-73
2022/12/07 00:29:51;;;;;;;16.20;11.43;;;6.60;99.90;;;;;;5013715;28;20201;-74
2022/12/07 00:32:17;;;;;;;19.20;11.90;;;6.50;99.90;;;;;;5014947;28;20174;-75
2022/12/07 00:34:44;;;;;;;18.43;11.53;;;6.60;99.90;;;;;;5014942;28;20244;-75
2022/12/07 00:37:12;;;;;;;18.70;12.20;;;6.40;99.90;;;;;;5014531;28;20201;-74
2022/12/07 00:39:38;;;;;;;17.13;11.87;;;6.40;99.90;;;;;;5015128;28;20164;-75
2022/12/07 00:42:04;;;;;;;15.80;11.10;;;6.50;99.90;;;;;;5013671;28;20533;-75
2022/12/07 00:44:30;;;;;;;20.57;12.00;;;6.60;99.90;;;;;;5013621;28;20166;-73
2022/12/07 00:46:57;;;;;;;15.90;11.40;;;6.60;99.90;;;;;;5013178;28;20201;-73
2022/12/07 00:49:22;;;;;;;18.07;11.80;;;6.60;99.90;;;;;;5013473;28;20237;-73
2022/12/07 00:51:49;;;;;;;16.27;11.53;;;6.70;99.90;;;;;;5013284;28;20630;-75
2022/12/07 00:54:14;;;;;;;19.70;13.07;;;6.30;99.90;;;;;;5014604;28;20228;-74
2022/12/07 00:56:41;;;;;;;19.00;13.10;;;6.40;99.90;;;;;;5013181;28;20564;-74
2022/12/07 00:59:07;;;;;;;18.83;12.83;;;6.60;99.90;;;;;;5014489;28;20170;-74
2022/12/07 01:01:36;;;;;;;21.83;13.40;;;6.60;99.90;;;;;;5014596;28;20530;-73
2022/12/07 01:04:04;;;;;;;20.07;13.50;;;6.50;99.90;;;;;;5014473;28;20177;-74
2022/12/07 01:06:30;;;;;;;20.77;14.57;;;6.50;99.90;;;;;;5013934;28;20175;-74
2022/12/07 01:08:56;;;;;;;19.77;13.43;;;6.40;99.90;;;;;;5014321;28;20197;-75
2022/12/07 01:11:25;;;;;;;23.13;14.43;;;6.30;99.90;;;;;;5014384;28;20174;-73
2022/12/07 01:13:55;;;;;;;17.87;12.93;;;6.30;99.90;;;;;;5014140;28;20173;-74
2022/12/07 01:16:26;;;;;;;22.53;14.27;;;6.20;99.90;;;;;;5013948;28;20177;-75
2022/12/07 01:18:55;;;;;;;18.60;13.63;;;6.10;99.90;;;;;;5013630;28;20205;-74
2022/12/07 01:21:26;;;;;;;18.73;14.23;;;6.20;99.90;;;;;;5014209;28;20178;-73
2022/12/07 01:23:53;;;;;;;21.70;14.03;;;6.10;99.90;;;;;;5014041;28;20190;-73
2022/12/07 01:26:22;;;;;;;21.00;14.97;;;6.00;99.90;;;;;;5013604;28;20647;-73
2022/12/07 01:28:48;;;;;;;22.50;14.97;;;6.10;99.90;;;;;;5011683;28;20247;-74
2022/12/07 01:31:19;;;;;;;23.40;16.30;;;6.20;99.90;;;;;;5013798;28;20181;-73
2022/12/07 01:33:48;;;;;;;20.03;14.10;;;6.20;99.90;;;;;;5013580;28;20184;-74
2022/12/07 01:36:18;;;;;;;20.47;14.17;;;6.00;99.90;;;;;;5012245;28;20270;-73
2022/12/07 01:38:45;;;;;;;25.47;14.83;;;6.10;99.90;;;;;;5012297;28;20181;-73
2022/12/07 01:41:12;;;;;;;20.27;14.63;;;6.30;99.90;;;;;;5012448;28;20176;-73
2022/12/07 01:44:06;;;;;;;22.37;14.03;;;6.20;99.90;;;;;;5013652;28;20640;-73
2022/12/07 01:46:32;;;;;;;19.80;13.43;;;6.20;99.90;;;;;;5012103;28;20650;-73
2022/12/07 01:48:58;;;;;;;20.33;13.60;;;6.30;99.90;;;;;;5012042;28;20201;-73
2022/12/07 01:51:23;;;;;;;18.00;13.17;;;6.30;99.90;;;;;;5013618;28;20174;-73
2022/12/07 01:53:50;;;;;;;19.83;12.73;;;6.30;99.90;;;;;;5013403;28;20239;-73
2022/12/07 01:56:20;;;;;;;20.13;13.50;;;6.30;99.90;;;;;;5011872;28;20249;-73
2022/12/07 01:58:46;;;;;;;19.87;13.53;;;6.30;99.90;;;;;;5012271;28;20224;-74
2022/12/07 02:01:12;;;;;;;18.80;14.03;;;6.40;99.90;;;;;;5013278;28;20264;-73
2022/12/07 02:03:40;;;;;;;20.90;13.57;;;6.70;99.90;;;;;;5011767;28;20686;-73
2022/12/07 02:06:07;;;;;;;18.83;12.73;;;6.60;99.90;;;;;;5013042;28;20174;-73
2022/12/07 02:08:35;;;;;;;19.30;12.83;;;6.60;99.90;;;;;;5013155;28;20206;-73
2022/12/07 02:11:03;;;;;;;17.30;12.07;;;6.40;99.90;;;;;;5011922;28;20165;-73
2022/12/07 02:13:31;;;;;;;19.13;12.70;;;6.20;99.90;;;;;;5011952;28;20646;-73
2022/12/07 02:16:14;;;;;;;18.97;12.37;;;6.10;99.90;;;;;;5013084;28;20249;-73
2022/12/07 02:19:02;;;;;;;17.33;11.93;;;6.00;99.90;;;;;;5012875;28;20169;-73
2022/12/07 02:21:46;;;;;;;19.13;12.73;;;6.20;99.90;;;;;;5013329;28;20652;-74
2022/12/07 02:24:36;;;;;;;18.43;11.93;;;6.40;99.90;;;;;;5011296;28;20276;-73
2022/12/07 02:27:10;;;;;;;21.00;11.77;;;6.50;99.90;;;;;;5013199;28;20705;-73
2022/12/07 02:29:43;;;;;;;20.63;12.83;;;6.40;99.90;;;;;;5011776;28;20187;-73
2022/12/07 02:32:25;;;;;;;15.50;11.13;;;6.60;99.90;;;;;;5012386;28;20583;-73
2022/12/07 02:35:09;;;;;;;16.30;11.60;;;6.50;99.90;;;;;;5011433;28;20277;-73
2022/12/07 02:37:46;;;;;;;20.73;10.67;;;6.60;99.90;;;;;;5012886;28;20178;-73
2022/12/07 02:40:24;;;;;;;19.47;11.73;;;6.50;99.90;;;;;;5012673;28;20171;-74
2022/12/07 02:42:57;;;;;;;14.97;11.17;;;6.30;99.90;;;;;;5011812;28;20178;-74
2022/12/07 02:45:26;;;;;;;20.87;11.93;;;6.20;99.90;;;;;;5012286;28;20284;-75
2022/12/07 02:47:56;;;;;;;20.43;11.00;;;6.20;99.90;;;;;;5012723;28;20200;-74
2022/12/07 02:50:23;;;;;;;16.17;11.40;;;6.30;99.90;;;;;;5012838;28;20209;-74
2022/12/07 02:52:49;;;;;;;16.80;11.90;;;6.40;99.90;;;;;;5011653;28;20202;-74
2022/12/07 02:55:21;;;;;;;17.97;12.50;;;6.20;99.90;;;;;;5012239;28;20205;-74
2022/12/07 02:57:57;;;;;;;22.80;11.73;;;6.40;99.90;;;;;;5012822;28;20542;-74
2022/12/07 03:00:23;;;;;;;19.17;12.00;;;6.20;99.90;;;;;;5011183;28;20178;-74
2022/12/07 03:03:05;;;;;;;17.77;11.50;;;6.10;99.90;;;;;;5012832;28;20659;-75
2022/12/07 03:05:47;;;;;;;16.50;11.20;;;6.00;99.90;;;;;;5012405;28;20183;-74
2022/12/07 03:08:26;;;;;;;18.73;11.77;;;5.90;99.90;;;;;;5012538;28;20182;-74
2022/12/07 03:11:12;;;;;;;16.67;11.93;;;5.90;99.90;;;;;;5012646;28;20201;-77
2022/12/07 03:13:47;;;;;;;20.90;11.70;;;5.80;99.90;;;;;;5013067;28;20594;-77
2022/12/07 03:16:19;;;;;;;16.30;11.70;;;6.00;99.90;;;;;;5012497;28;20228;-76
2022/12/07 03:19:04;;;;;;;17.73;11.70;;;6.00;99.90;;;;;;5012842;28;20174;-77
2022/12/07 03:21:38;;;;;;;21.07;12.27;;;5.80;99.90;;;;;;5012814;28;20187;-77
2022/12/07 03:24:09;;;;;;;18.57;12.50;;;5.80;99.90;;;;;;5012376;28;20245;-76
2022/12/07 03:26:42;;;;;;;19.13;11.07;;;6.00;99.90;;;;;;5011984;28;20177;-77
2022/12/07 03:29:23;;;;;;;17.97;10.63;;;6.20;99.90;;;;;;5010750;28;20209;-77
2022/12/07 03:32:06;;;;;;;15.13;9.93;;;6.10;99.90;;;;;;5012050;28;20164;-76
2022/12/07 03:34:49;;;;;;;12.33;9.43;;;6.00;99.90;;;;;;5012243;28;20679;-76
2022/12/07 03:37:26;;;;;;;17.20;9.97;;;6.10;99.90;;;;;;5010656;28;20169;-77
2022/12/07 03:40:06;;;;;;;14.50;10.23;;;5.90;99.90;;;;;;5012157;28;20196;-77
2022/12/07 03:42:33;;;;;;;17.57;9.97;;;5.90;99.90;;;;;;5012208;28;20196;-77
2022/12/07 03:45:00;;;;;;;13.90;10.37;;;5.80;99.90;;;;;;5010681;28;20205;-77
2022/12/07 03:47:40;;;;;;;19.03;10.90;;;5.60;99.90;;;;;;5010375;28;20250;-77
2022/12/07 03:50:18;;;;;;;22.00;10.33;;;5.70;99.90;;;;;;5010669;28;20244;-77
2022/12/07 03:52:54;;;;;;;16.43;11.13;;;5.60;99.90;;;;;;5012384;28;20664;-77
2022/12/07 03:55:27;;;;;;;18.47;9.93;;;5.70;99.90;;;;;;5015321;28;20174;-77
2022/12/07 03:57:56;;;;;;;16.73;9.80;;;5.80;99.90;;;;;;5013615;28;20178;-75
2022/12/07 04:00:22;;;;;;;17.83;10.67;;;5.60;99.90;;;;;;5013839;28;20231;-76
2022/12/07 04:02:50;;;;;;;15.30;10.77;;;5.60;99.90;;;;;;5014247;28;20177;-75
2022/12/07 04:05:16;;;;;;;18.47;11.30;;;5.80;99.90;;;;;;5013629;28;20181;-75
2022/12/07 04:07:42;;;;;;;20.13;11.83;;;5.70;99.90;;;;;;5015403;28;20165;-76
2022/12/07 04:10:08;;;;;;;16.23;10.60;;;5.70;99.90;;;;;;5013981;28;20202;-76
2022/12/07 04:12:33;;;;;;;16.33;10.90;;;5.60;99.90;;;;;;5013741;28;20168;-77
2022/12/07 04:14:59;;;;;;;19.60;12.27;;;5.60;99.90;;;;;;5013417;28;20248;-77
2022/12/07 04:17:25;;;;;;;16.27;10.83;;;5.70;99.90;;;;;;5014952;28;20162;-77
2022/12/07 04:19:50;;;;;;;15.23;11.67;;;5.60;99.90;;;;;;5013679;28;20170;-76
2022/12/07 04:22:17;;;;;;;16.50;10.07;;;5.50;99.90;;;;;;5014780;28;20169;-76
2022/12/07 04:24:42;;;;;;;19.27;11.80;;;5.40;99.90;;;;;;5014461;28;20535;-76
2022/12/07 04:27:08;;;;;;;18.17;11.47;;;5.50;99.90;;;;;;5014827;28;20188;-77
2022/12/07 04:29:33;;;;;;;17.40;11.17;;;5.70;99.90;;;;;;5014631;28;20662;-77
2022/12/07 04:32:00;;;;;;;18.37;11.47;;;5.70;99.90;;;;;;5014784;28;20165;-77
2022/12/07 04:34:26;;;;;;;20.93;11.47;;;5.70;99.90;;;;;;5012898;28;20170;-76
2022/12/07 04:36:51;;;;;;;18.47;11.90;;;5.80;99.90;;;;;;5014718;28;20625;-77
2022/12/07 04:39:20;;;;;;;14.57;12.07;;;5.90;99.90;;;;;;5014751;28;20700;-76
2022/12/07 04:41:46;;;;;;;18.83;12.90;;;5.90;99.90;;;;;;5014555;28;20241;-76
2022/12/07 04:44:14;;;;;;;25.23;12.10;;;6.00;99.90;;;;;;5013025;28;20177;-76
2022/12/07 04:46:40;;;;;;;17.10;11.97;;;5.90;99.90;;;;;;5013431;28;20171;-76
2022/12/07 04:49:05;;;;;;;15.77;12.23;;;5.80;99.90;;;;;;5013263;28;20193;-77
2022/12/07 04:51:31;;;;;;;17.43;11.97;;;5.80;99.90;;;;;;5014529;28;20515;-77
2022/12/07 04:53:57;;;;;;;18.13;11.73;;;5.80;99.90;;;;;;5014236;28;20655;-77
2022/12/07 04:56:24;;;;;;;18.60;12.60;;;5.90;99.90;;;;;;5012887;28;20173;-77
2022/12/07 04:58:53;;;;;;;16.60;11.40;;;5.70;99.90;;;;;;5014551;28;20663;-76
2022/12/07 05:01:19;;;;;;;17.93;12.30;;;5.70;99.90;;;;;;5013112;28;20670;-76
2022/12/07 05:03:45;;;;;;;19.13;12.43;;;5.60;99.90;;;;;;5013920;28;20169;-76
2022/12/07 05:06:11;;;;;;;18.30;13.10;;;5.50;99.90;;;;;;5013169;28;20177;-76
2022/12/07 05:08:37;;;;;;;17.53;12.27;;;5.50;99.90;;;;;;5013054;28;20200;-77
2022/12/07 05:11:04;;;;;;;17.70;13.07;;;5.30;99.90;;;;;;5014170;28;20677;-74
2022/12/07 05:13:30;;;;;;;21.70;13.67;;;5.50;99.90;;;;;;5013711;28;20197;-74
2022/12/07 05:15:55;;;;;;;21.70;14.00;;;5.70;99.90;;;;;;5013724;28;20165;-74
2022/12/07 05:18:21;;;;;;;17.13;12.87;;;5.70;99.90;;;;;;5013875;28;20166;-74
2022/12/07 05:20:46;;;;;;;17.30;12.47;;;5.60;99.90;;;;;;5014000;28;20172;-74
2022/12/07 05:23:14;;;;;;;19.80;12.73;;;5.70;99.90;;;;;;5012524;28;20165;-74
2022/12/07 05:25:40;;;;;;;18.70;12.30;;;5.70;99.90;;;;;;5012909;28;20667;-74
2022/12/07 05:28:05;;;;;;;22.17;12.60;;;5.70;99.90;;;;;;5012248;28;20186;-74
2022/12/07 05:30:32;;;;;;;16.53;11.60;;;5.80;99.90;;;;;;5013635;28;20194;-75
2022/12/07 05:33:00;;;;;;;17.03;11.67;;;5.90;99.90;;;;;;5012476;28;20374;-75
2022/12/07 05:35:28;;;;;;;20.13;10.87;;;6.00;99.90;;;;;;5013654;28;20181;-75
2022/12/07 05:37:55;;;;;;;16.43;12.00;;;5.60;99.90;;;;;;5012333;28;20581;-75
2022/12/07 05:40:21;;;;;;;17.47;11.90;;;5.90;99.90;;;;;;5013044;28;20641;-75
2022/12/07 05:42:46;;;;;;;16.30;12.03;;;5.90;99.90;;;;;;5012246;28;20177;-75
2022/12/07 05:45:12;;;;;;;17.97;12.17;;;5.90;99.90;;;;;;5013670;28;20235;-74
2022/12/07 05:47:38;;;;;;;20.40;12.07;;;5.70;99.90;;;;;;5012081;28;20268;-74
2022/12/07 05:50:04;;;;;;;19.10;12.00;;;5.60;99.90;;;;;;5013253;28;20660;-74
2022/12/07 05:52:31;;;;;;;19.70;12.00;;;5.70;99.90;;;;;;5011656;28;20671;-74
2022/12/07 05:54:57;;;;;;;13.70;11.20;;;6.00;99.90;;;;;;5013213;28;20177;-74
2022/12/07 05:57:22;;;;;;;19.80;12.50;;;6.20;99.90;;;;;;5012017;28;20227;-73
2022/12/07 05:59:49;;;;;;;18.90;13.03;;;6.20;99.90;;;;;;5013127;28;20232;-74
2022/12/07 06:02:16;;;;;;;16.57;11.20;;;6.30;99.90;;;;;;5011611;28;20176;-74
2022/12/07 06:04:44;;;;;;;15.93;11.07;;;6.20;99.90;;;;;;5013236;28;20219;-74
2022/12/07 06:07:19;;;;;;;15.73;12.00;;;6.00;99.90;;;;;;5013595;28;20643;-74
2022/12/07 06:09:46;;;;;;;17.80;12.00;;;6.00;99.90;;;;;;5013354;28;20670;-74
2022/12/07 06:14:59;;;;;;;16.20;10.67;;;6.00;99.90;;;;;;5012945;28;20180;-74
2022/12/07 06:17:24;;;;;;;18.20;11.67;;;5.60;99.90;;;;;;5012136;28;20173;-74
2022/12/07 06:19:50;;;;;;;18.83;10.67;;;5.80;99.90;;;;;;5013164;28;20170;-74
2022/12/07 06:22:16;;;;;;;16.57;10.53;;;5.80;99.90;;;;;;5013439;28;20169;-73
2022/12/07 06:24:45;;;;;;;12.10;8.53;;;5.60;99.90;;;;;;5011788;28;20165;-75
2022/12/07 06:27:12;;;;;;;14.67;9.57;;;5.40;99.90;;;;;;5012459;28;20244;-74
2022/12/07 06:29:38;;;;;;;13.87;8.70;;;5.30;99.90;;;;;;5011453;28;20335;-74
2022/12/07 06:32:04;;;;;;;14.23;9.13;;;5.20;99.90;;;;;;5004609;28;20167;-74
2022/12/07 06:34:39;;;;;;;11.07;8.67;;;5.40;99.90;;;;;;5011946;28;20154;-74
2022/12/07 06:37:11;;;;;;;14.07;8.90;;;5.60;99.90;;;;;;5010799;28;20161;-74
2022/12/07 06:39:38;;;;;;;14.70;9.50;;;5.70;99.90;;;;;;5012137;28;20191;-75
2022/12/07 06:42:22;;;;;;;16.30;9.57;;;5.80;99.90;;;;;;5012347;28;20158;-75
2022/12/07 06:44:49;;;;;;;13.00;9.13;;;6.10;99.90;;;;;;5012116;28;20207;-75
2022/12/07 06:47:15;;;;;;;13.93;8.50;;;5.90;99.90;;;;;;5010623;28;20227;-75
2022/12/07 06:49:42;;;;;;;14.33;8.70;;;5.90;99.90;;;;;;5010409;28;20224;-75
2022/12/07 06:52:08;;;;;;;13.47;9.30;;;6.00;99.90;;;;;;5011810;28;20530;-74
2022/12/07 06:54:33;;;;;;;14.10;9.20;;;6.20;99.90;;;;;;5027905;28;20157;-74
2022/12/07 06:57:00;;;;;;;16.10;8.97;;;6.20;99.90;;;;;;5013447;28;20165;-74
2022/12/07 06:59:29;;;;;;;14.90;8.57;;;6.00;99.90;;;;;;5012862;28;20589;-76
2022/12/07 07:01:55;;;;;;;15.03;8.43;;;6.20;99.90;;;;;;5012869;28;20160;-76
2022/12/07 07:04:23;;;;;;;9.93;8.23;;;6.20;99.90;;;;;;5010780;28;20269;-76
2022/12/07 07:06:49;;;;;;;14.43;8.97;;;6.20;99.90;;;;;;5011351;28;20213;-76
2022/12/07 07:09:15;;;;;;;16.43;8.70;;;6.40;99.90;;;;;;5011744;28;20193;-74
2022/12/07 07:11:42;;;;;;;14.50;9.00;;;6.40;99.90;;;;;;5012573;28;20588;-75
2022/12/07 07:14:09;;;;;;;16.67;8.67;;;6.40;99.90;;;;;;5006281;28;20264;-77
2022/12/07 07:16:34;;;;;;;14.43;8.83;;;6.40;99.90;;;;;;5008824;28;20169;-75
2022/12/07 07:19:00;;;;;;;10.87;8.43;;;6.30;99.90;;;;;;5012019;28;20178;-76
2022/12/07 07:21:26;;;;;;;12.70;9.07;;;6.20;99.90;;;;;;5011691;28;20203;-76
2022/12/07 07:23:52;;;;;;;17.27;8.87;;;6.00;99.90;;;;;;5016788;28;20679;-76
2022/12/07 07:26:17;;;;;;;16.87;10.03;;;6.20;99.90;;;;;;5011218;28;20166;-76
2022/12/07 07:28:45;;;;;;;14.67;9.50;;;6.20;99.90;;;;;;5012406;28;20203;-77
2022/12/07 07:31:13;;;;;;;17.10;10.17;;;6.30;99.90;;;;;;5012435;28;20669;-75
2022/12/07 07:33:41;;;;;;;17.23;10.40;;;6.30;99.90;;;;;;5015458;28;20204;-74
2022/12/07 07:36:09;;;;;;;21.07;10.33;;;6.20;99.90;;;;;;5016124;28;20650;-75
2022/12/07 07:38:34;;;;;;;18.97;9.73;;;6.20;99.90;;;;;;5014867;28;20638;-75
2022/12/07 07:41:00;;;;;;;14.10;8.63;;;6.20;99.90;;;;;;5013879;28;20172;-75
2022/12/07 07:43:27;;;;;;;13.77;9.67;;;6.20;99.90;;;;;;5015918;28;20260;-74
2022/12/07 07:45:54;;;;;;;13.67;9.47;;;6.30;99.90;;;;;;5009659;28;20540;-74
2022/12/07 07:48:22;;;;;;;18.27;9.33;;;6.20;99.90;;;;;;5016063;28;20161;-75
2022/12/07 07:50:50;;;;;;;15.53;8.70;;;5.80;99.90;;;;;;5014470;28;20611;-76
2022/12/07 07:53:18;;;;;;;16.80;10.00;;;5.70;99.90;;;;;;5015613;28;20173;-76
2022/12/07 07:55:56;;;;;;;14.00;10.10;;;5.80;99.90;;;;;;5015731;28;20180;-75
2022/12/07 07:58:23;;;;;;;15.37;10.43;;;5.90;99.90;;;;;;5014207;28;20178;-75
2022/12/07 08:00:50;;;;;;;18.53;9.33;;;6.00;99.90;;;;;;5015176;28;20568;-75
2022/12/07 08:03:19;;;;;;;16.97;9.97;;;5.70;99.90;;;;;;5015604;28;20608;-75
2022/12/07 08:05:45;;;;;;;16.03;9.53;;;5.70;99.90;;;;;;5015602;28;20182;-75
2022/12/07 08:08:13;;;;;;;16.07;10.70;;;5.50;99.90;;;;;;5015559;28;20192;-75
2022/12/07 08:10:39;;;;;;;17.23;10.10;;;5.50;99.90;;;;;;5011170;28;20209;-74
2022/12/07 08:13:16;;;;;;;13.17;9.40;;;5.50;99.90;;;;;;5012975;28;20294;-74
2022/12/07 08:15:45;;;;;;;15.13;9.47;;;5.60;99.90;;;;;;5015433;28;20146;-74
2022/12/07 08:18:13;;;;;;;16.40;9.83;;;5.70;99.90;;;;;;5015570;28;20196;-74
2022/12/07 08:20:44;;;;;;;19.33;9.73;;;5.80;99.90;;;;;;5014270;28;20750;-74
2022/12/07 08:23:11;;;;;;;15.53;9.83;;;6.00;99.90;;;;;;5015115;28;20208;-74
2022/12/07 08:25:39;;;;;;;16.47;9.87;;;5.90;99.90;;;;;;5014970;28;20240;-74
2022/12/07 08:28:05;;;;;;;20.43;11.97;;;5.90;99.90;;;;;;5015070;28;20646;-74
2022/12/07 08:30:32;;;;;;;21.03;10.23;;;5.90;99.90;;;;;;5014365;28;20185;-75
2022/12/07 08:32:57;;;;;;;21.50;9.57;;;5.90;99.90;;;;;;5015040;28;20154;-74
2022/12/07 08:35:24;;;;;;;16.23;10.13;;;5.70;99.90;;;;;;5013895;28;20183;-75
2022/12/07 08:37:50;;;;;;;18.03;10.23;;;5.60;99.90;;;;;;5014569;28;20153;-75
2022/12/07 08:40:18;;;;;;;22.97;11.57;;;5.90;99.90;;;;;;5013980;28;20173;-75
2022/12/07 08:42:49;;;;;;;19.93;10.80;;;6.00;99.90;;;;;;5013325;28;20162;-75
2022/12/07 08:45:16;;;;;;;21.37;10.90;;;6.10;99.90;;;;;;5014415;28;20317;-75
2022/12/07 08:47:50;;;;;;;17.50;9.93;;;6.20;99.90;;;;;;5014336;28;20497;-75
2022/12/07 08:50:17;;;;;;;17.60;10.60;;;6.00;99.90;;;;;;5013727;28;20199;-75
2022/12/07 08:52:44;;;;;;;15.13;9.23;;;6.10;99.90;;;;;;5014496;28;20170;-74
2022/12/07 08:55:12;;;;;;;20.93;9.67;;;6.00;99.90;;;;;;5014386;28;20158;-75
2022/12/07 08:57:43;;;;;;;17.17;9.67;;;6.30;99.90;;;;;;5014727;28;20697;-75
2022/12/07 09:00:09;;;;;;;16.77;9.17;;;6.50;99.90;;;;;;5013967;28;20189;-75
2022/12/07 09:02:35;;;;;;;14.00;9.23;;;6.70;99.90;;;;;;5014219;28;20220;-75
2022/12/07 09:05:04;;;;;;;18.50;8.50;;;6.70;99.90;;;;;;5013092;28;20241;-75
2022/12/07 09:07:31;;;;;;;13.63;8.00;;;6.80;99.90;;;;;;5012310;28;20173;-75
2022/12/07 09:09:59;;;;;;;14.50;8.13;;;6.70;99.90;;;;;;5013142;28;20721;-75
2022/12/07 09:12:25;;;;;;;12.03;7.70;;;6.60;99.90;;;;;;5012408;28;20173;-74
2022/12/07 09:14:50;;;;;;;15.33;8.03;;;6.80;99.90;;;;;;5013976;28;20158;-74
2022/12/07 09:17:18;;;;;;;14.53;7.23;;;7.10;99.90;;;;;;5012659;28;20161;-74
2022/12/07 09:19:47;;;;;;;14.30;7.87;;;7.00;99.90;;;;;;5013024;28;20166;-74
2022/12/07 09:22:13;;;;;;;15.27;9.73;;;7.00;99.90;;;;;;5013765;28;20158;-74
2022/12/07 09:24:39;;;;;;;17.43;7.63;;;7.20;99.90;;;;;;5013792;28;20530;-74
2022/12/07 09:27:05;;;;;;;15.77;7.67;;;7.20;99.90;;;;;;5013008;28;20173;-75
2022/12/07 09:29:35;;;;;;;12.13;7.27;;;7.20;99.90;;;;;;5011151;28;20685;-74
2022/12/07 09:32:01;;;;;;;11.80;7.27;;;7.10;99.90;;;;;;5013779;28;20171;-74
2022/12/07 09:34:31;;;;;;;13.30;7.93;;;7.10;99.90;;;;;;5013847;28;20157;-75
2022/12/07 09:37:01;;;;;;;12.50;6.70;;;7.20;99.90;;;;;;5013538;28;20154;-74
2022/12/07 09:39:27;;;;;;;13.03;7.37;;;7.30;99.90;;;;;;5010674;28;20170;-74
2022/12/07 09:41:53;;;;;;;11.87;7.30;;;7.50;99.90;;;;;;5013373;28;20174;-74
2022/12/07 09:44:25;;;;;;;15.53;7.13;;;7.70;99.90;;;;;;5013514;28;20638;-74
2022/12/07 09:46:53;;;;;;;14.93;8.03;;;7.70;99.90;;;;;;5012787;28;20516;-75
2022/12/07 09:49:29;;;;;;;12.53;6.83;;;7.60;99.90;;;;;;5011704;28;20195;-75
2022/12/07 09:52:04;;;;;;;13.57;7.43;;;7.40;99.90;;;;;;5013057;28;20557;-75
2022/12/07 09:54:41;;;;;;;12.07;7.27;;;7.30;99.90;;;;;;5013496;28;20252;-74
2022/12/07 09:57:10;;;;;;;11.53;7.27;;;7.40;99.90;;;;;;5013280;28;20299;-74
2022/12/07 09:59:36;;;;;;;14.17;7.57;;;7.50;99.90;;;;;;5010851;28;20211;-75
2022/12/07 10:02:24;;;;;;;11.80;7.13;;;7.70;99.90;;;;;;5010664;28;20234;-75
2022/12/07 10:04:50;;;;;;;16.00;7.57;;;7.90;99.90;;;;;;5012037;28;20211;-74
2022/12/07 10:07:15;;;;;;;10.97;6.80;;;8.10;99.90;;;;;;5012661;28;20264;-74
2022/12/07 10:09:42;;;;;;;12.87;6.97;;;8.20;99.90;;;;;;5009929;28;20557;-74
2022/12/07 10:12:11;;;;;;;12.70;7.70;;;8.20;99.90;;;;;;5012301;28;20236;-74
2022/12/07 10:14:40;;;;;;;11.20;7.20;;;8.20;99.90;;;;;;5010886;28;20177;-75
2022/12/07 10:17:43;;;;;;;15.80;8.40;;;8.30;99.90;;;;;;5012048;28;20525;-75
2022/12/07 10:20:27;;;;;;;11.73;7.63;;;8.20;99.90;;;;;;5009731;28;20183;-75
2022/12/07 10:23:00;;;;;;;16.30;7.87;;;8.00;99.90;;;;;;5010881;28;20195;-75
2022/12/07 10:25:32;;;;;;;12.07;8.00;;;8.00;99.90;;;;;;5012477;28;20286;-74
2022/12/07 10:28:01;;;;;;;14.83;8.20;;;7.90;99.90;;;;;;5012935;28;20506;-76
2022/12/07 10:30:27;;;;;;;14.17;8.30;;;7.70;99.90;;;;;;5010471;28;20264;-74
2022/12/07 10:32:54;;;;;;;11.33;7.10;;;7.60;99.90;;;;;;5011059;28;20713;-75
2022/12/07 10:35:30;;;;;;;9.67;6.37;;;7.40;99.90;;;;;;5012148;28;20163;-75
2022/12/07 10:37:58;;;;;;;13.37;7.03;;;7.40;99.90;;;;;;5011065;28;20194;-75
2022/12/07 10:40:24;;;;;;;11.93;6.60;;;7.60;99.90;;;;;;5010307;28;20262;-74
2022/12/07 10:43:11;;;;;;;11.80;6.83;;;7.80;99.90;;;;;;5011031;28;20248;-75
2022/12/07 10:45:50;;;;;;;10.00;6.63;;;7.90;99.90;;;;;;5009345;28;20206;-75
2022/12/07 10:48:26;;;;;;;8.77;5.73;;;7.70;99.90;;;;;;5011581;28;20174;-73
2022/12/07 10:51:37;;;;;;;14.33;6.10;;;7.50;99.90;;;;;;5009349;28;20183;-75
2022/12/07 10:54:51;;;;;;;14.10;6.43;;;7.50;99.90;;;;;;5007660;28;20189;-75
2022/12/07 10:57:36;;;;;;;13.50;6.63;;;7.40;99.90;;;;;;4995993;28;20227;-75
2022/12/07 11:00:15;;;;;;;13.10;7.43;;;7.30;99.90;;;;;;5009494;28;20659;-74
2022/12/07 11:03:15;;;;;;;9.73;5.57;;;7.60;99.90;;;;;;4996618;28;20170;-75
2022/12/07 11:06:00;;;;;;;9.07;5.20;;;7.90;99.90;;;;;;5016374;28;20160;-74
2022/12/07 11:09:01;;;;;;;8.30;5.60;;;8.10;99.90;;;;;;5015153;28;20178;-75
2022/12/07 11:11:32;;;;;;;12.57;6.03;;;8.30;99.90;;;;;;5014366;28;20199;-74
2022/12/07 11:14:24;;;;;;;10.00;5.57;;;8.40;99.90;;;;;;5015060;28;20186;-76
2022/12/07 11:16:57;;;;;;;6.83;5.30;;;8.30;99.90;;;;;;5015444;28;20264;-75
2022/12/07 11:19:50;;;;;;;10.77;5.07;;;8.20;99.90;;;;;;5013337;28;20608;-75
2022/12/07 11:22:31;;;;;;;11.23;6.40;;;7.90;99.90;;;;;;5003727;28;20329;-75
2022/12/07 11:25:22;;;;;;;11.30;4.90;;;7.80;99.90;;;;;;5000941;28;20170;-76
2022/12/07 11:28:03;;;;;;;12.37;4.83;;;7.70;99.90;;;;;;5015101;28;20171;-76
2022/12/07 11:31:07;;;;;;;8.67;4.53;;;7.80;99.90;;;;;;5013988;28;20214;-75
2022/12/07 11:33:36;;;;;;;8.40;4.10;;;7.90;99.90;;;;;;5012378;28;20179;-74
2022/12/07 11:36:14;;;;;;;10.47;3.83;;;8.10;99.90;;;;;;5013498;28;20194;-76
2022/12/07 11:38:50;;;;;;;6.90;3.80;;;8.60;99.90;;;;;;5013586;28;20552;-75
2022/12/07 11:41:23;;;;;;;10.30;4.03;;;9.00;99.90;;;;;;5012385;28;20168;-74
2022/12/07 11:44:16;;;;;;;7.37;3.47;;;9.40;99.90;;;;;;5010043;28;20543;-75
2022/12/07 11:46:57;;;;;;;6.97;3.73;;;9.40;99.90;;;;;;5011613;28;20647;-76
2022/12/07 11:49:51;;;;;;;6.17;3.63;;;9.30;99.90;;;;;;5013655;28;20200;-76
2022/12/07 11:52:48;;;;;;;7.70;3.30;;;10.00;99.90;;;;;;5014715;28;20161;-75
2022/12/07 11:55:32;;;;;;;6.70;3.40;;;10.50;99.90;;;;;;5001101;28;20177;-75
2022/12/07 11:58:26;;;;;;;4.63;3.10;;;11.50;99.90;;;;;;5012090;28;20556;-75
2022/12/07 12:01:08;;;;;;;7.17;3.03;;;12.10;99.90;;;;;;5022063;28;20195;-75
2022/12/07 12:03:40;;;;;;;4.97;3.07;;;12.60;99.90;;;;;;5015120;28;20152;-75
2022/12/07 12:06:06;;;;;;;5.67;2.63;;;12.90;99.90;;;;;;5014760;28;20167;-75
2022/12/07 12:08:40;;;;;;;9.77;2.97;;;12.50;99.90;;;;;;5013028;28;20172;-75
2022/12/07 12:11:06;;;;;;;6.97;3.17;;;12.40;99.90;;;;;;5012662;28;20168;-75
2022/12/07 12:13:51;;;;;;;8.40;3.17;;;12.20;99.90;;;;;;5013285;28;20170;-75
2022/12/07 12:16:27;;;;;;;4.90;2.70;;;12.00;99.90;;;;;;5005646;28;20163;-75
2022/12/07 12:19:11;;;;;;;6.90;3.53;;;11.60;99.90;;;;;;5012913;28;20500;-75
2022/12/07 12:21:38;;;;;;;9.40;3.30;;;11.00;99.90;;;;;;5013073;28;20180;-76
2022/12/07 12:24:18;;;;;;;5.30;2.87;;;10.70;99.90;;;;;;5013532;28;20172;-75
2022/12/07 12:27:01;;;;;;;6.87;2.50;;;10.50;99.90;;;;;;5013939;28;20622;-75
2022/12/07 12:29:36;;;;;;;6.73;3.43;;;10.10;99.90;;;;;;5012700;28;20259;-75
2022/12/07 12:32:23;;;;;;;6.77;2.70;;;10.00;99.90;;;;;;5014183;28;20202;-75
2022/12/07 12:35:00;;;;;;;6.23;2.60;;;9.60;99.90;;;;;;5013981;28;20169;-74
2022/12/07 12:37:35;;;;;;;4.30;2.40;;;9.40;99.90;;;;;;5014076;28;20212;-74
2022/12/07 12:40:38;;;;;;;9.93;3.10;;;9.30;99.90;;;;;;5012857;28;20160;-74
2022/12/07 12:43:42;;;;;;;4.20;2.43;;;9.30;99.90;;;;;;5014405;28;20603;-74
2022/12/07 12:46:29;;;;;;;5.87;2.60;;;8.80;99.90;;;;;;5013934;28;20178;-75
2022/12/07 12:49:34;;;;;;;5.43;2.30;;;9.00;99.90;;;;;;5012482;28;20282;-75
2022/12/07 12:52:21;;;;;;;5.97;2.50;;;9.10;99.90;;;;;;5013978;28;20212;-76
2022/12/07 12:55:21;;;;;;;3.93;1.60;;;8.90;99.90;;;;;;5014411;28;20185;-74
2022/12/07 12:58:07;;;;;;;7.47;2.20;;;9.00;99.90;;;;;;5013309;28;20193;-75
2022/12/07 13:00:34;;;;;;;7.17;2.30;;;9.10;99.90;;;;;;5014288;28;20545;-75
2022/12/07 13:03:00;;;;;;;4.80;1.50;;;9.20;99.90;;;;;;5014232;28;20167;-75
2022/12/07 13:05:31;;;;;;;5.33;1.67;;;9.20;99.90;;;;;;5014155;28;20284;-74
2022/12/07 13:08:20;;;;;;;5.47;1.50;;;9.10;99.90;;;;;;5014429;28;20218;-75